Česky Dansk Deutsch English Español Suomi Français Magyar Italiano Nederlands norsk Polski Português svenska Türkçe

 

Het Weer

Sarh (Tjaad)

13:00, 21 augustus 2016 (GMT)

NWNNE
WE
SWSSE
Home            
Sarh Moundou N'Dele Am-Timan Bossangoa Pala Bokoro Bossembele Bambari Bouar Maroua-Salak Bria Ndjamena Birao Bangui Meiganga Garoua Alindao Ngaoundere Abeche Yalinga Berberati Betare-Oya

Om een weerknop op uw website of weblog te plaatsen, copieer onderstaande code en plak die in uw pagina. In het eerste vakje staat HTML-code, in het tweede vakje UBB-code.


Add to Google

Details

Wind speed:2 bf, 6 kn, 3.1 m/s, 6.9 miles/h, 11.1 km/h
Wind direction:SW, 220°
Görüş mesafesi:Değerinden büyük 10000 m, 10 km, 32800 ft, 6.2 miles
Clouds:Aufgelockert bewölkt at 4000 ft, 1219 m
Sıcaklık:32°C, 90°F
Gefühlte Temperatur:36°C, 96°F
Dew-point:21°C, 70°F
Atmosferık basınç:1013 hPa, 759.8 mmHg, 29.91 inHg, 1.000 atm
Relativ humidity:52.3 %
METAR:FTTA 211300Z 22006KT 9999 SCT040 32/21 Q1013

Snelkoppelingen

Actuele weersinformatie van de hele wereld. Voeg locaties toe met het plus (+) symbool. Deze snelkoppelingen kunnen worden toegevoegd aan Google.

Lid van de Technetium groep

website free tracking
StatCounter NetStat W3C Validator

22-07-2018 10:53:33
astro.technetium.be money.technetium.be phote.technetium.be tafeltennistafel.technetium.be www.ligfiets.net